createdAt,value
2022-08-14T00:00:40.528Z,14.32
2022-08-14T00:04:01.543Z,13.35
2022-08-14T00:07:42.552Z,14.50
2022-08-14T00:11:07.523Z,14.32
2022-08-14T00:14:28.530Z,14.10
2022-08-14T00:17:53.368Z,15.40
2022-08-14T00:21:14.576Z,13.20
2022-08-14T00:24:37.728Z,14.00
2022-08-14T00:27:58.530Z,14.25
2022-08-14T00:31:35.387Z,15.57
2022-08-14T00:35:03.528Z,14.23
2022-08-14T00:38:24.606Z,14.98
2022-08-14T00:41:48.536Z,14.93
2022-08-14T00:45:09.598Z,14.48
2022-08-14T00:48:34.510Z,14.02
2022-08-14T00:51:58.099Z,16.88
2022-08-14T00:55:21.613Z,14.38
2022-08-14T00:58:45.100Z,14.68
2022-08-14T01:02:14.523Z,14.15
2022-08-14T01:05:41.808Z,15.50
2022-08-14T01:09:14.538Z,15.10
2022-08-14T01:12:40.711Z,14.50
2022-08-14T01:16:06.536Z,14.38
2022-08-14T01:19:47.999Z,14.60
2022-08-14T01:23:16.326Z,14.52
2022-08-14T01:26:40.603Z,13.30
2022-08-14T01:30:10.571Z,14.65
2022-08-14T01:34:00.432Z,13.88
2022-08-14T01:37:19.597Z,15.02
2022-08-14T01:40:41.917Z,14.93
2022-08-14T01:44:32.826Z,13.23
2022-08-14T01:47:50.557Z,14.60
2022-08-14T01:51:19.541Z,15.85
2022-08-14T01:54:41.642Z,15.27
2022-08-14T01:58:20.275Z,13.90
2022-08-14T02:01:51.542Z,15.05
2022-08-14T02:05:20.584Z,15.30
2022-08-14T02:08:53.300Z,14.82
2022-08-14T02:12:19.576Z,13.38
2022-08-14T02:15:43.584Z,13.90
2022-08-14T02:22:28.631Z,12.68
2022-08-14T02:25:54.719Z,12.10
2022-08-14T02:29:59.191Z,12.20
2022-08-14T02:33:18.553Z,11.38
2022-08-14T02:37:04.591Z,11.07
2022-08-14T02:40:31.911Z,9.77
2022-08-14T02:43:54.659Z,10.10
2022-08-14T02:47:21.584Z,9.70
2022-08-14T02:50:44.619Z,11.18
2022-08-14T02:54:13.272Z,9.18
2022-08-14T02:57:42.568Z,9.85
2022-08-14T03:01:03.616Z,9.50
2022-08-14T03:04:28.582Z,9.50
2022-08-14T03:07:49.666Z,10.85
2022-08-14T03:11:18.576Z,11.40
2022-08-14T03:14:43.629Z,10.15
2022-08-14T03:18:05.585Z,10.23
2022-08-14T03:21:24.619Z,11.00
2022-08-14T03:24:46.585Z,11.57
2022-08-14T03:28:33.312Z,10.25
2022-08-14T03:31:58.578Z,11.15
2022-08-14T03:35:20.677Z,11.10
2022-08-14T03:39:11.617Z,12.35
2022-08-14T03:42:35.766Z,11.82
2022-08-14T03:45:57.573Z,12.07
2022-08-14T03:49:24.361Z,11.20
2022-08-14T03:52:55.606Z,10.68
2022-08-14T03:56:21.364Z,11.10
2022-08-14T03:59:42.594Z,9.95
2022-08-14T04:03:03.607Z,10.95
2022-08-14T04:06:28.348Z,11.40
2022-08-14T04:09:52.806Z,11.23
2022-08-14T04:13:17.600Z,11.10
2022-08-14T04:16:38.624Z,10.63
2022-08-14T04:20:00.689Z,11.10
2022-08-14T04:23:29.419Z,11.65
2022-08-14T04:26:55.691Z,11.98
2022-08-14T04:30:25.028Z,12.65
2022-08-14T04:33:54.607Z,11.85
2022-08-14T04:37:34.601Z,11.75
2022-08-14T04:41:14.658Z,13.18
2022-08-14T04:44:37.231Z,11.55
2022-08-14T04:48:39.879Z,11.35
2022-08-14T04:51:59.625Z,11.55
2022-08-14T04:55:16.826Z,11.82
2022-08-14T04:58:34.610Z,12.23
2022-08-14T05:01:57.382Z,11.02
2022-08-14T05:05:18.655Z,11.57
2022-08-14T05:08:56.888Z,11.50
2022-08-14T05:13:24.526Z,11.63
2022-08-14T05:16:01.696Z,11.75
2022-08-14T05:19:27.296Z,10.82
2022-08-14T05:22:55.612Z,11.05
2022-08-14T05:26:21.667Z,10.60
2022-08-14T05:29:42.707Z,11.10
2022-08-14T05:33:03.683Z,12.27
2022-08-14T05:36:27.035Z,11.98
2022-08-14T05:39:48.752Z,10.93
2022-08-14T05:43:11.666Z,12.43
2022-08-14T05:46:34.634Z,10.50
2022-08-14T05:49:58.624Z,10.25
2022-08-14T05:53:19.638Z,10.48
2022-08-14T05:56:42.635Z,11.15
2022-08-14T06:00:04.670Z,11.43
2022-08-14T06:03:28.708Z,8.93
2022-08-14T06:06:49.645Z,8.65
2022-08-14T06:10:10.685Z,9.60
2022-08-14T06:13:44.410Z,9.25
2022-08-14T06:17:06.624Z,8.73
2022-08-14T06:20:28.750Z,9.07
2022-08-14T06:23:50.642Z,10.00
2022-08-14T06:27:12.612Z,10.45
2022-08-14T06:30:46.170Z,10.07
2022-08-14T06:35:03.350Z,10.60
2022-08-14T06:37:59.630Z,10.68
2022-08-14T06:41:52.666Z,10.70
2022-08-14T06:45:07.667Z,9.40
2022-08-14T06:48:33.652Z,8.70
2022-08-14T06:51:56.637Z,7.47
2022-08-14T06:55:28.220Z,6.80
2022-08-14T06:58:50.640Z,6.53
2022-08-14T07:02:29.693Z,6.68
2022-08-14T07:05:58.665Z,6.68
2022-08-14T07:09:22.566Z,6.40
2022-08-14T07:13:00.761Z,6.28
2022-08-14T07:16:22.680Z,5.85
2022-08-14T07:19:48.652Z,6.05
2022-08-14T07:23:09.292Z,5.80
2022-08-14T07:26:31.651Z,5.05
2022-08-14T07:29:52.644Z,5.75
2022-08-14T07:33:13.636Z,5.55
2022-08-14T07:36:35.674Z,5.00
2022-08-14T07:39:56.710Z,6.55
2022-08-14T07:43:18.653Z,6.65
2022-08-14T07:46:41.637Z,5.10
2022-08-14T07:50:34.715Z,5.47
2022-08-14T07:54:03.496Z,6.13
2022-08-14T07:57:35.704Z,6.00
2022-08-14T08:00:57.908Z,5.68
2022-08-14T08:04:24.565Z,5.70
2022-08-14T08:07:45.688Z,5.95
2022-08-14T08:11:14.696Z,6.72
2022-08-14T08:14:56.317Z,6.32
2022-08-14T08:18:29.251Z,6.50
2022-08-14T08:21:53.755Z,5.30
2022-08-14T08:25:17.798Z,6.82
2022-08-14T08:28:41.522Z,6.10
2022-08-14T08:32:05.969Z,7.00
2022-08-14T08:35:46.249Z,6.18
2022-08-14T08:39:16.919Z,5.97
2022-08-14T08:42:44.888Z,5.57
2022-08-14T08:46:08.664Z,5.50
2022-08-14T08:49:59.621Z,6.25
2022-08-14T08:53:16.679Z,6.25
2022-08-14T08:56:56.079Z,5.50
2022-08-14T09:00:26.703Z,4.38
2022-08-14T09:03:47.766Z,4.43
2022-08-14T09:07:11.292Z,4.15
2022-08-14T09:10:31.689Z,4.63
2022-08-14T09:13:53.697Z,4.35
2022-08-14T09:17:14.666Z,4.63
2022-08-14T09:20:36.941Z,4.60
2022-08-14T09:24:26.935Z,4.45
2022-08-14T09:27:42.716Z,4.38
2022-08-14T09:31:17.834Z,4.00
2022-08-14T09:34:59.741Z,4.50
2022-08-14T09:39:22.829Z,4.28
2022-08-14T09:43:22.501Z,4.28
2022-08-14T09:46:43.672Z,5.20
2022-08-14T09:50:10.678Z,4.40
2022-08-14T09:54:19.355Z,4.05
2022-08-14T09:57:41.691Z,4.82
2022-08-14T10:01:06.697Z,4.28
2022-08-14T10:04:46.202Z,4.60
2022-08-14T10:08:14.974Z,4.82
2022-08-14T10:12:18.867Z,4.55
2022-08-14T10:16:01.950Z,4.90
2022-08-14T10:25:18.395Z,5.15
2022-08-14T10:28:39.506Z,4.72
2022-08-14T10:32:17.593Z,4.78
2022-08-14T10:35:57.777Z,4.68
2022-08-14T10:39:32.864Z,4.85
2022-08-14T10:42:56.324Z,6.22
2022-08-14T10:47:39.808Z,4.40
2022-08-14T10:50:15.017Z,4.78
2022-08-14T10:53:42.764Z,4.88
2022-08-14T10:57:03.840Z,4.60
2022-08-14T11:00:35.479Z,4.68
2022-08-14T11:03:57.836Z,4.53
2022-08-14T11:07:28.773Z,5.03
2022-08-14T11:10:55.791Z,5.30
2022-08-14T11:14:22.819Z,6.35
2022-08-14T11:17:47.787Z,5.30
2022-08-14T11:21:09.676Z,4.78
2022-08-14T11:24:55.357Z,4.60
2022-08-14T11:28:19.816Z,5.45
2022-08-14T11:32:01.752Z,5.05
2022-08-14T11:35:44.089Z,4.68
2022-08-14T11:39:10.713Z,5.60
2022-08-14T11:42:56.922Z,4.70
2022-08-14T11:46:30.727Z,5.25
2022-08-14T11:50:02.733Z,5.85
2022-08-14T11:53:41.898Z,5.35
2022-08-14T11:57:02.717Z,5.70
2022-08-14T12:00:31.623Z,4.57
2022-08-14T12:03:57.204Z,5.00
2022-08-14T12:07:20.693Z,5.25
2022-08-14T12:10:42.881Z,5.28
2022-08-14T12:14:03.749Z,4.97
2022-08-14T12:17:26.725Z,5.25
2022-08-14T12:20:52.695Z,5.57
2022-08-14T12:24:35.875Z,6.00
2022-08-14T12:27:59.279Z,4.93
2022-08-14T12:31:36.324Z,5.03
2022-08-14T12:35:07.737Z,4.88
2022-08-14T12:38:31.744Z,5.18
2022-08-14T12:41:53.818Z,4.97
2022-08-14T12:45:21.716Z,4.53
2022-08-14T12:48:43.736Z,4.82
2022-08-14T12:52:17.225Z,5.32
2022-08-14T12:56:17.894Z,5.05
2022-08-14T12:59:16.733Z,5.22
2022-08-14T13:02:38.821Z,5.40
2022-08-14T13:06:03.776Z,4.88
2022-08-14T13:09:26.765Z,4.80
2022-08-14T13:13:12.038Z,4.65
2022-08-14T13:16:38.031Z,5.15
2022-08-14T13:20:00.768Z,5.53
2022-08-14T13:23:32.272Z,5.15
2022-08-14T13:27:03.760Z,4.70
2022-08-14T13:30:26.761Z,4.50
2022-08-14T13:33:48.760Z,5.13
2022-08-14T13:37:14.738Z,5.45
2022-08-14T13:40:38.739Z,5.18
2022-08-14T13:44:03.787Z,5.97
2022-08-14T13:47:26.774Z,5.00
2022-08-14T13:50:49.744Z,6.68
2022-08-14T13:54:11.527Z,5.50
2022-08-14T13:57:33.850Z,5.63
2022-08-14T14:00:55.603Z,4.97
2022-08-14T14:04:18.855Z,5.13
2022-08-14T14:07:43.423Z,6.60
2022-08-14T14:11:05.775Z,4.95
2022-08-14T14:14:44.753Z,4.57
2022-08-14T14:18:34.096Z,4.80
2022-08-14T14:21:59.457Z,4.32
2022-08-14T14:29:33.527Z,4.47
2022-08-14T14:33:46.391Z,4.85
2022-08-14T14:37:11.884Z,4.45
2022-08-14T14:40:52.393Z,4.90
2022-08-14T14:44:24.394Z,4.57
2022-08-14T14:53:39.128Z,5.85
2022-08-14T14:57:16.752Z,8.65
2022-08-14T15:00:42.058Z,8.32
2022-08-14T15:04:20.270Z,6.82
2022-08-14T15:08:02.925Z,5.38
2022-08-14T16:00:37.916Z,5.95
2022-08-14T16:03:57.998Z,6.88
2022-08-14T16:07:28.198Z,5.65
2022-08-14T16:10:54.964Z,6.20
2022-08-14T16:14:21.207Z,5.72
2022-08-14T16:18:10.168Z,5.35
2022-08-14T16:22:57.673Z,5.05
2022-08-14T16:27:05.228Z,5.40
2022-08-14T16:30:36.103Z,6.82
2022-08-14T16:34:43.997Z,5.95
2022-08-14T16:57:43.080Z,5.50
2022-08-14T17:01:22.438Z,5.22
2022-08-14T17:04:46.061Z,6.00
2022-08-14T17:08:32.131Z,8.73
2022-08-14T17:12:07.645Z,6.38
2022-08-14T17:15:29.086Z,6.70
2022-08-14T17:19:00.646Z,6.82
2022-08-14T17:22:26.911Z,6.72
2022-08-14T17:25:50.897Z,6.40
2022-08-14T17:29:44.602Z,7.15
2022-08-14T17:33:27.231Z,7.15
2022-08-14T17:36:51.030Z,7.65
2022-08-14T17:40:24.103Z,10.15
2022-08-14T17:43:41.344Z,9.20
2022-08-14T17:47:09.052Z,10.73
2022-08-14T17:50:55.109Z,10.53
2022-08-14T17:54:14.009Z,8.73
2022-08-14T17:57:46.577Z,11.05
2022-08-14T18:01:12.111Z,9.27
2022-08-14T18:04:33.041Z,8.73
2022-08-14T18:08:33.167Z,9.18
2022-08-14T18:11:46.318Z,11.85
2022-08-14T18:15:12.263Z,10.30
2022-08-14T18:18:38.033Z,8.68
2022-08-14T18:22:03.948Z,8.77
2022-08-14T18:25:25.019Z,9.43
2022-08-14T18:28:51.484Z,9.57
2022-08-14T18:32:14.018Z,9.52
2022-08-14T18:35:59.749Z,10.13
2022-08-14T18:40:01.295Z,12.02
2022-08-14T18:43:24.040Z,14.23
2022-08-14T18:47:25.549Z,13.50
2022-08-14T18:50:47.036Z,12.02
2022-08-14T18:54:14.018Z,11.30
2022-08-14T18:57:40.608Z,10.77
2022-08-14T19:01:04.512Z,11.43
2022-08-14T19:04:51.039Z,13.05
2022-08-14T19:08:39.050Z,12.73
2022-08-14T19:12:01.093Z,16.02
2022-08-14T19:15:25.705Z,20.02
2022-08-14T19:18:48.079Z,23.10
2022-08-14T19:22:12.662Z,24.55
2022-08-14T19:26:02.046Z,30.98
2022-08-14T19:29:47.854Z,34.85
2022-08-14T19:33:13.024Z,33.60
2022-08-14T19:37:04.494Z,34.28
2022-08-14T19:40:20.398Z,36.28
2022-08-14T19:43:56.454Z,31.20
2022-08-14T19:47:18.079Z,26.10
2022-08-14T19:50:44.383Z,22.00
2022-08-14T19:54:15.190Z,21.45
2022-08-14T19:57:57.866Z,16.90
2022-08-14T20:01:20.215Z,16.50
2022-08-14T20:04:55.697Z,12.43
2022-08-14T20:11:01.057Z,12.02
2022-08-14T20:12:04.635Z,12.23
2022-08-14T20:15:27.070Z,11.07
2022-08-14T20:19:08.058Z,10.38
2022-08-14T20:22:36.274Z,11.15
2022-08-14T20:26:01.048Z,10.20
2022-08-14T20:29:15.183Z,10.07
2022-08-14T20:32:36.072Z,9.55
2022-08-14T20:36:00.060Z,8.82
2022-08-14T20:39:23.081Z,8.57
2022-08-14T20:43:06.072Z,9.38
2022-08-14T20:46:31.384Z,8.68
2022-08-14T20:49:52.064Z,9.57
2022-08-14T20:53:15.130Z,9.35
2022-08-14T20:56:36.104Z,10.68
2022-08-14T21:00:02.106Z,9.35
2022-08-14T21:03:57.154Z,8.23
2022-08-14T21:07:36.201Z,10.02
2022-08-14T21:11:00.083Z,8.43
2022-08-14T21:14:28.301Z,9.48
2022-08-14T21:17:43.454Z,8.45
2022-08-14T21:21:04.674Z,9.55
2022-08-14T21:24:47.657Z,7.55
2022-08-14T21:28:20.943Z,11.00
2022-08-14T21:31:55.377Z,8.18
2022-08-14T21:35:20.089Z,7.95
2022-08-14T21:38:45.195Z,8.38
2022-08-14T21:42:07.121Z,7.85
2022-08-14T21:45:35.671Z,7.50
2022-08-14T21:48:57.092Z,7.90
2022-08-14T21:52:51.959Z,7.72
2022-08-14T21:56:05.142Z,7.93
2022-08-14T21:59:39.087Z,7.28
2022-08-14T22:03:00.094Z,8.27
2022-08-14T22:06:21.110Z,8.32
2022-08-14T22:09:54.956Z,8.35
2022-08-14T22:13:16.840Z,8.63
2022-08-14T22:16:59.703Z,8.40
2022-08-14T22:20:22.111Z,9.38
2022-08-14T22:23:43.143Z,8.98
2022-08-14T22:27:04.138Z,9.00
2022-08-14T22:30:30.143Z,8.88
2022-08-14T22:33:52.116Z,8.70
2022-08-14T22:37:19.128Z,8.63
2022-08-14T22:41:14.884Z,9.18
2022-08-14T22:44:29.222Z,8.88
2022-08-14T22:47:50.120Z,8.60
2022-08-14T22:51:17.839Z,9.40
2022-08-14T22:54:52.041Z,7.78
2022-08-14T22:58:17.165Z,8.25
2022-08-14T23:01:56.468Z,7.85
2022-08-14T23:05:38.987Z,8.85
2022-08-14T23:09:34.571Z,8.57
2022-08-14T23:12:43.143Z,7.30
2022-08-14T23:16:04.150Z,7.00
2022-08-14T23:19:25.175Z,7.38
2022-08-14T23:22:56.138Z,8.18
2022-08-14T23:26:48.071Z,7.63
2022-08-14T23:29:58.129Z,7.35
2022-08-14T23:33:19.118Z,7.68
2022-08-14T23:36:53.053Z,7.20
2022-08-14T23:40:26.478Z,7.00
2022-08-14T23:43:50.160Z,7.28
2022-08-14T23:47:25.667Z,7.70
2022-08-14T23:50:50.132Z,8.85
2022-08-14T23:54:48.646Z,7.60
2022-08-14T23:57:58.539Z,7.50
